In Rescue
 
Open Full Screen Window  High Contrast Mode
Wind Gusting 15 knots
06
October 25, 2021 3:51 PM EDT
Present Weather: Light Rain
Weather Information
Wind Direction
  030 °
Wind Speed
  06 kt (7 mph)
Wind Gust
  15 kt (17 mph)
Altimeter
29.78 in
Visibility
10 SM
Temperature
09° C
48° F
Dewpoint
08° C
46° F
Humidity
94%
1hr Rain Fall
00.02 in.
24hr Rain Fall
01.56 in.
Sky Condition
Overcast @ 900 ft
IFR

METAR KOZW 251951Z AUTO 03006G15KT 10SM -RA OVC009 09/08 A2978 RMK AO2 T00850080 P0002

FAA Disclaimer: The data displayed is for advisory purposes only and is not to be used for flight planning or operations.